METAR de aeropuertos de Murcia y cercanos

 

LEMI - Murcia/Corvera
Actualización: 02/08/2021 01:30
Few Clouds
Few Clouds
 Viento del ENE
Viento: ENE 7 km/h
Temperatura: 23°C
Rocío: 20°C
Humedad: 83%
Barómetro: 1015 hPa
Nubosidad: Few Clouds
Visibilidad: 10 km
Cloud details: Few Clouds 701 m
2021/08/01 23:30 LEMI 012330Z AUTO 06004KT 9999 FEW023 23/20 Q1015
LERI - Murcia/Alcantarilla
Actualización: 01/08/2021 20:00
NO Actualizado
Despejado
Despejado
 Viento del ESE
Viento: ESE 19 km/h
Temperatura: 27°C
Heat Index: 28°C
Rocío: 18°C
Humedad: 58%
Barómetro: 1013 hPa
Resumen: Despejado
Visibilidad: greater than 10 km
2021/08/01 18:00 LERI 011800Z 12010KT 080V140 CAVOK 27/18 Q1013 NOSIG
LELC - Murcia/San Javier
Actualización: 02/08/2021 01:30
Partly Cloudy
Partly Cloudy
 Viento del ESE
Viento: ESE 11 km/h
Temperatura: 25°C
Rocío: 20°C
Humedad: 74%
Barómetro: 1014 hPa
Nubosidad: Partly Cloudy
Visibilidad: 10 km
Cloud details: Partly Cloudy 640 m
2021/08/01 23:30 LELC 012330Z AUTO 11006KT 070V150 9999 SCT021 25/20 Q1014
 
LEAL - Alicante
Actualización: 02/08/2021 01:30
Few Clouds
Few Clouds
 Viento del N
Viento: N 11 km/h
Temperatura: 24°C
Rocío: 18°C
Humedad: 69%
Barómetro: 1015 hPa
Nubosidad: Few Clouds
Visibilidad: 10 km
Cloud details: Few Clouds 762 m
2021/08/01 23:30 LEAL 012330Z 01006KT 9999 FEW025 24/18 Q1015 NOSIG
LEAB - Albacete
Actualización: 02/08/2021 01:30
Despejado
Despejado
 Viento del SSE
Viento: SSE 13 km/h
Temperatura: 19°C
Rocío: 16°C
Humedad: 83%
Barómetro: 1017 hPa
Resumen: Despejado
Visibilidad: greater than 10 km
2021/08/01 23:30 LEAB 012330Z 15007KT 120V180 CAVOK 19/16 Q1017 NOSIG
LEAM - Almería
Actualización: 02/08/2021 01:30
Despejado
Despejado
 Viento del varies
Viento: varies 4 km/h
Temperatura: 22°C
Rocío: 19°C
Humedad: 83%
Barómetro: 1014 hPa
Resumen: Despejado
Visibilidad: greater than 10 km
2021/08/01 23:30 LEAM 012330Z AUTO VRB02KT CAVOK 22/19 Q1014

La estación de MeteoMurcia.com, publica sus datos en los siguientes proyectos:

Weather Underground PWS IMURCIAP2 Meteoclimatic www.awekas.at

W3Counter
Web Analytics